Tiempo atmosférico en la estación meteorológica de Fraga, Huesca (170 m.)



Fecha
DESCASC
Temp. máxima en grados centígrados (hora)
DESCASC
Temp. mínima en grados centígrados (hora)
DESCASC
Temp. media en grados centígrados
DESCASC
Racha de viento máxima en m/sg (hora)
DESCASC
Velocidad máxima media en intervalos de 10 minutos(hora)
DESCASC
Precipitaciones diarias en mm
DESCASC
Precipitaciones de 00:00 a 06:00 en mm
DESCASC
Precipitaciones de 06:00 a 12:00 en mm
DESCASC
Precipitaciones de 12:00 a 18:00 en mm
DESCASC
Precipitaciones de 18:00 a 24:00 en mm
DESCASC
23-06-2019 35.6 (15:40) 19.5 (07:00) 27.5 13.06 (18:00) 7.22 (18:20) 0 0 0 0 0
22-06-2019 33 (18:20) 15.3 (06:30) 24.2 9.72 (20:50) 6.11 (20:50) 0 0 0 0 0
21-06-2019 28.3 (17:30) 17.5 (06:40) 22.9 7.5 (22:40) 5.28 (22:50) 1 0 1 0 0
20-06-2019 31 (14:50) 19.9 (00:00) 25.4 11.39 (17:30) 7.22 (16:10) 0.4 0 0 0 0.4
19-06-2019 -- (--) -- (--) -- -- (--) -- (--) -- -- -- -- 0
18-06-2019 -- (--) -- (--) -- -- (--) -- (--) -- 0 0 0 --
17-06-2019 35.2 (17:30) 15.2 (00:00) 25.2 12.5 (20:00) 7.5 (20:00) 0 0 0 0 0
16-06-2019 31.8 (17:20) 15.2 (00:00) 23.5 10.83 (20:30) 6.11 (18:50) 0 0 0 0 0
15-06-2019 29.4 (17:00) 15.1 (00:00) 22.3 10.28 (15:40) 6.11 (18:20) 0 0 0 0 0
14-06-2019 30 (18:00) 14.1 (00:00) 22.1 7.78 (23:59) 5 (23:59) 0 0 0 0 0
13-06-2019 26.3 (15:40) 11.6 (00:00) 18.9 11.94 (16:50) 7.22 (17:20) 0 0 0 0 0
12-06-2019 24.7 (17:00) 8.7 (00:00) 16.7 8.61 (16:40) 5.28 (00:20) 0 0 0 0 0
11-06-2019 21 (19:20) 11.7 (00:00) 16.3 12.5 (20:00) 8.33 (20:00) 4.2 2 1.8 0.4 0
10-06-2019 27.9 (16:40) 15 (00:00) 21.4 11.11 (17:20) 8.61 (17:50) 0 0 0 0 0
09-06-2019 30.8 (18:00) 15.7 (00:00) 23.2 8.89 (21:50) 5.28 (20:10) 0 0 0 0 0
08-06-2019 27.2 (15:20) 12 (00:00) 19.6 11.94 (17:10) 7.22 (17:20) 0 0 0 0 0
07-06-2019 25.8 (16:50) 14.6 (00:00) 20.2 13.06 (10:00) 9.72 (13:20) 0 0 0 0 0
06-06-2019 25.9 (14:00) 12.5 (00:00) 19.2 16.67 (18:20) 8.33 (16:40) 0 0 0 0 0
05-06-2019 22.4 (17:20) 15.8 (00:00) 19.1 21.39 (14:30) 11.94 (20:00) 0 0 0 0 0
04-06-2019 30.7 (16:10) 16.2 (00:00) 23.5 15 (21:10) 8.61 (21:10) 0 0 0 0 0
03-06-2019 30.1 (16:20) 15.6 (00:00) 22.9 11.67 (16:30) 7.22 (19:30) 0 0 0 0 0
02-06-2019 31.5 (16:00) 15.6 (00:00) 23.6 11.94 (20:10) 7.5 (20:10) 0 0 0 0 0
01-06-2019 31.9 (16:40) 14.2 (00:00) 23 10 (19:40) 6.11 (18:30) 0 0 0 0 0
31-05-2019 29.9 (16:20) 14.1 (00:00) 22 10.83 (20:40) 6.67 (19:50) 0 0 0 0 0
30-05-2019 29.3 (18:30) 11.7 (00:00) 20.5 9.17 (23:30) 5.83 (21:10) 0 0 0 0 0
29-05-2019 26.7 (18:20) 11.4 (00:00) 19.1 17.78 (00:10) 11.39 (00:10) 0 0 0 0 0
28-05-2019 24.1 (15:50) 12 (00:00) 18.1 20 (18:50) 12.78 (19:00) 0 0 0 0 0
27-05-2019 27.7 (18:10) 12.4 (00:00) 20.1 13.06 (23:10) 7.78 (22:50) 0 0 0 0 0
26-05-2019 26.3 (17:50) 11.4 (00:00) 18.8 10.56 (18:50) 6.39 (18:50) 0 0 0 0 0
25-05-2019 25.2 (17:40) 13.2 (00:00) 19.2 10.83 (18:20) 7.78 (18:20) 2.4 0 0 0 2.4

Gráficas

Temp. máximas Temp. mínimas Temp. medias Precipitaciones Rachas de viento máximas Velocidades máximas media en intervalos de 10 minutos

Datos horarios

Fecha y hora oficial Temperatura (ºC) Velocidad del viento (km/h) Dirección del viento Racha (km/h) Dirección de racha Precipitación (mm) Presión (hPa) Tendencia (hPa) Humedad (%)
2019-06-23 23:00:00 25.7 10 Sudeste 34 Sudeste 0 -- -- 40
2019-06-23 22:00:00 26.8 18 Sudeste 32 Sudeste 0 -- -- 39
2019-06-23 21:00:00 28.2 19 Sudeste 40 Sudeste 0 -- -- 36
2019-06-23 20:00:00 30 25 Sudeste 44 Sudeste 0 -- -- 31
2019-06-23 19:00:00 31.3 21 Sudeste 43 Sur 0 -- -- 32
2019-06-23 18:00:00 33 22 Sudeste 47 Sudeste 0 -- -- 33
2019-06-23 17:00:00 33.7 21 Sudeste 37 Sur 0 -- -- 34
2019-06-23 16:00:00 34.8 16 Sudeste 29 Este 0 -- -- 34
2019-06-23 15:00:00 34.6 9 Este 19 Nordeste 0 -- -- 30
2019-06-23 14:00:00 33 8 Este 23 Nordeste 0 -- -- 35
2019-06-23 13:00:00 31.3 9 Este 21 Nordeste 0 -- -- 40
2019-06-23 12:00:00 29.1 9 Este 19 Sudeste 0 -- -- 44
2019-06-23 11:00:00 26.9 9 Sudeste 19 Este 0 -- -- 51
2019-06-23 10:00:00 24.9 6 Sudeste 18 Nordeste 0 -- -- 56
2019-06-23 09:00:00 23.5 7 Nordeste 14 Este 0 -- -- 59
2019-06-23 08:00:00 20.8 4 Nordeste 10 Nordeste 0 -- -- 66
2019-06-23 07:00:00 19.5 6 Este 22 Nordeste 0 -- -- 69
2019-06-23 06:00:00 19.7 12 Nordeste 23 Este 0 -- -- 68
2019-06-23 05:00:00 20.3 15 Nordeste 22 Nordeste 0 -- -- 66
2019-06-23 04:00:00 21.3 10 Este 17 Este 0 -- -- 63
2019-06-23 03:00:00 22 8 Este 21 Este 0 -- -- 61
2019-06-23 02:00:00 22.5 12 Este 22 Este 0 -- -- 59
2019-06-23 01:00:00 22.4 13 Este 31 Sudeste 0 -- -- 60
2019-06-23 00:00:00 22.9 16 Sudeste 31 Sudeste 0 -- -- 59
2019-06-22 23:00:00 23.7 18 Sudeste 31 Sudeste 0 -- -- 59
2019-06-22 22:00:00 24.9 14 Sudeste 33 Sudeste 0 -- -- 55
2019-06-22 21:00:00 26.3 19 Sudeste 35 Sur 0 -- -- 51
2019-06-22 20:00:00 28 13 Sudeste 33 Sudeste 0 -- -- 46
2019-06-22 19:00:00 32.3 11 Nordeste 24 Nordeste 0 -- -- 28
2019-06-22 18:00:00 32.6 12 Nordeste 23 Norte 0 -- -- 28
2019-06-22 17:00:00 31.9 8 Norte 21 Nordeste 0 -- -- 30
2019-06-22 16:00:00 30.5 6 Este 19 Nordeste 0 -- -- 31
2019-06-22 15:00:00 29.7 8 Este 16 Este 0 -- -- 32
2019-06-22 14:00:00 27.9 6 Noroeste 15 Este 0 -- -- 31
2019-06-22 13:00:00 26.1 4 Norte 13 Nordeste 0 -- -- 39
2019-06-22 12:00:00 24.1 5 Este 13 Sur 0 -- -- 43
2019-06-22 11:00:00 22.7 6 Nordeste 12 Nordeste 0 -- -- 49
2019-06-22 10:00:00 20 3 Sudoeste 9 Sudoeste 0 -- -- 54
2019-06-22 09:00:00 18 3 Sur 10 Oeste 0 -- -- 60
2019-06-22 08:00:00 16.4 8 Oeste 13 Noroeste 0 -- -- 66
2019-06-22 07:00:00 15.3 6 Sudoeste 13 Sudoeste 0 -- -- 69
2019-06-22 06:00:00 15.7 4 Oeste 11 Sudoeste 0 -- -- 68
2019-06-22 05:00:00 16.5 7 Sudoeste 17 Sudoeste 0 -- -- 65
2019-06-22 04:00:00 17.4 9 Oeste 17 Oeste 0 -- -- 63
2019-06-22 03:00:00 18.3 7 Sudoeste 13 Sudoeste 0 -- -- 61
2019-06-22 02:00:00 19.4 4 Sudoeste 12 Sudoeste 0 -- -- 59
2019-06-22 01:00:00 20.7 8 Sudoeste 13 Sudoeste 0 -- -- 55
2019-06-22 00:00:00 22.4 12 Noroeste 24 Noroeste 0 -- -- 50
2019-06-21 23:00:00 23.7 17 Noroeste 27 Noroeste 0 -- -- 51
2019-06-21 22:00:00 25.2 6 Sudoeste 13 Sudoeste 0 -- -- 48
2019-06-21 21:00:00 26.5 4 Sudoeste 14 Sudeste 0 -- -- 49
2019-06-21 20:00:00 26.8 6 Sudeste 12 Sudoeste 0 -- -- 47
2019-06-21 19:00:00 28.1 5 Sur 16 Sudoeste 0 -- -- 45
2019-06-21 18:00:00 27.9 8 Sur 15 Sudoeste 0 -- -- 46
2019-06-21 17:00:00 27.8 6 Sur 17 Sudoeste 0 -- -- 46
2019-06-21 16:00:00 26.5 4 Noroeste 16 Sur 0 -- -- 49
2019-06-21 15:00:00 26.4 5 Norte 19 Sudoeste 0 -- -- 50
2019-06-21 14:00:00 25.1 8 Oeste 17 Sudoeste 0 -- -- 56
2019-06-21 13:00:00 23.1 4 Sur 13 Sur 0 -- -- 59
2019-06-21 12:00:00 21.9 5 Sudoeste 14 Sur 0 -- -- 71
2019-06-21 11:00:00 20.1 3 Sudoeste 10 Sur 0 -- -- 77
2019-06-21 10:00:00 18.5 6 Sur 10 Sur 0.2 -- -- 84
2019-06-21 09:00:00 17.9 4 Sur 9 Sur 0.8 -- -- 85
2019-06-21 08:00:00 17.7 7 Sur 12 Sur 0 -- -- 82
2019-06-21 07:00:00 17.5 8 Sur 13 Sur 0 -- -- 82
2019-06-21 06:00:00 18 5 Sur 9 Sur 0 -- -- 80
2019-06-21 05:00:00 18.6 3 Sur 5 Sur 0 -- -- 77
2019-06-21 04:00:00 19 2 Sur 6 Oeste 0 -- -- 75
2019-06-21 03:00:00 19.1 0 Calma 9 Norte 0 -- -- 75
2019-06-21 02:00:00 18.9 2 Norte 8 Oeste 0 -- -- 78
2019-06-21 01:00:00 20.2 3 Sur 15 Sudeste 0 -- -- 68
2019-06-21 00:00:00 21.2 6 Sudeste 10 Sudeste 0 -- -- 63
2019-06-20 23:00:00 21.8 5 Sudeste 11 Nordeste 0 -- -- 63
2019-06-20 22:00:00 22.7 5 Sudeste 19 Sudeste 0 -- -- 60
2019-06-20 21:00:00 23.6 11 Sur 26 Sudeste 0 -- -- 59
2019-06-20 20:00:00 23.5 8 Sudeste 17 Sudeste 0.4 -- -- 62
2019-06-20 19:00:00 24.9 14 Sur 38 Sudeste 0 -- -- 55
2019-06-20 18:00:00 26.5 18 Sur 41 Sudeste 0 -- -- 48
2019-06-20 17:00:00 27.5 25 Sur 40 Sur 0 -- -- 44
2019-06-20 16:00:00 30.2 24 Sudeste 39 Sudeste 0 -- -- 39
2019-06-20 15:00:00 30.6 19 Sudeste 31 Sur 0 -- -- 39
2019-06-20 14:00:00 30 13 Sudoeste 24 Sur 0 -- -- 38
2019-06-20 13:00:00 28.6 10 Sur 23 Sur 0 -- -- 41
2019-06-20 12:00:00 26.8 10 Sur 21 Sur 0 -- -- 45
2019-06-20 11:00:00 24.7 7 Sur 15 Sur 0 -- -- 53
2019-06-20 10:00:00 23.1 7 Sudeste 13 Sur 0 -- -- 58
2019-06-20 09:00:00 21.7 7 Sur 15 Sudeste 0 -- -- 66
2019-06-20 08:00:00 20.4 6 Sudeste 14 Sudeste 0 -- -- 73
2019-06-20 07:00:00 19.9 9 Sudeste 18 Sudeste 0 -- -- 75
2019-06-20 06:00:00 20.8 13 Sudeste 19 Sudeste 0 -- -- 70
2019-06-20 05:00:00 21 5 Sudeste 17 Sudeste 0 -- -- 69
2019-06-20 04:00:00 21.6 10 Sudeste 21 Sudeste 0 -- -- 62
2019-06-20 03:00:00 22.9 5 Este 17 Norte 0 -- -- 52
2019-06-20 02:00:00 23.9 3 Este 24 Sudeste 0 -- -- 49
2019-06-20 01:00:00 24.6 16 Sudeste 27 Este 0 -- -- 48
2019-06-20 00:00:00 25.5 16 Sudeste 28 Sudeste 0 -- -- 47
2019-06-19 23:00:00 26.8 12 Sudeste 21 Sudeste 0 -- -- 42
2019-06-19 22:00:00 27.6 9 Sur 19 Sudeste 0 -- -- 44
2019-06-19 21:00:00 29.6 11 Sudeste 18 Sudeste 0 -- -- 41
2019-06-19 20:00:00 31.7 10 Nordeste 24 Nordeste 0 -- -- 30
2019-06-19 19:00:00 32.8 14 Norte 26 Nordeste 0 -- -- 29
2019-06-19 18:00:00 33.1 13 Norte 30 Nordeste 0 -- -- 28
2019-06-19 17:00:00 33.6 15 Nordeste 30 Nordeste 0 -- -- 27
2019-06-19 16:00:00 33.8 14 Oeste 32 Oeste 0 -- -- 26
2019-06-19 15:00:00 32.4 13 Noroeste -- -- -- -- -- 27
2019-06-19 14:00:00 -- -- -- -- -- -- -- -- --
2019-06-19 13:00:00 29.7 6 Norte -- -- -- -- -- 36
2019-06-19 12:00:00 -- -- -- -- -- -- -- -- --
2019-06-19 11:00:00 -- -- -- -- -- -- -- -- --
2019-06-19 10:00:00 -- -- -- -- -- -- -- -- --
2019-06-19 09:00:00 -- -- -- -- -- -- -- -- --
2019-06-19 08:00:00 -- -- -- -- -- -- -- -- --
2019-06-19 07:00:00 -- -- -- -- -- -- -- -- --
2019-06-19 06:00:00 -- -- -- -- -- -- -- -- --
2019-06-19 05:00:00 -- -- -- -- -- -- -- -- --
2019-06-19 04:00:00 -- -- -- -- -- -- -- -- --
2019-06-19 03:00:00 -- -- -- -- -- -- -- -- --
2019-06-19 02:00:00 -- -- -- -- -- -- -- -- --
2019-06-19 01:00:00 -- -- -- -- -- -- -- -- --
2019-06-19 00:00:00 -- -- -- -- -- -- -- -- --
2019-06-18 23:00:00 -- -- -- -- -- -- -- -- --
2019-06-18 22:00:00 -- -- -- -- -- -- -- -- --
2019-06-18 21:00:00 -- -- -- -- -- -- -- -- --
2019-06-18 20:00:00 -- -- -- -- -- -- -- -- --
2019-06-18 19:00:00 28.7 20 Sudeste 54 Sudeste 0 -- -- 30
2019-06-18 18:00:00 29.4 27 Sudeste 50 Sur 0 -- -- 35
2019-06-18 17:00:00 30.3 31 Sudeste 51 Sudeste 0 -- -- 33
2019-06-18 16:00:00 31.5 27 Sudeste 46 Sudeste 0 -- -- 28
2019-06-18 15:00:00 31.8 22 Sur 41 Sudeste 0 -- -- 30
2019-06-18 14:00:00 31.2 17 Sudeste 34 Sudeste 0 -- -- 32
2019-06-18 13:00:00 30.6 14 Este 26 Sudeste 0 -- -- 35
2019-06-18 12:00:00 28.4 13 Este 24 Este 0 -- -- 37
2019-06-18 11:00:00 26 10 Este 18 Nordeste 0 -- -- 39
2019-06-18 10:00:00 23.4 8 Nordeste 24 Este 0 -- -- 43
2019-06-18 09:00:00 22.1 6 Este 15 Nordeste 0 -- -- 45
2019-06-18 08:00:00 19.2 2 Este 15 Este 0 -- -- 52
2019-06-18 07:00:00 18.4 2 Este 15 Este 0 -- -- 54
2019-06-18 06:00:00 18.7 12 Este 18 Este 0 -- -- 50
2019-06-18 05:00:00 19 10 Este 24 Este 0 -- -- 50
2019-06-18 04:00:00 19.5 8 Este 24 Nordeste 0 -- -- 49
2019-06-18 03:00:00 19.6 22 Nordeste 29 Nordeste 0 -- -- 51
2019-06-18 02:00:00 21.6 16 Nordeste 26 Nordeste 0 -- -- 44
2019-06-18 01:00:00 22.7 14 Sudeste 26 Sudeste 0 -- -- 37
2019-06-18 00:00:00 22.9 15 Sudeste 32 Sudeste 0 -- -- 40
2019-06-17 23:00:00 23.7 19 Sudeste 36 Sur 0 -- -- 42
2019-06-17 22:00:00 24.5 18 Sur 41 Sudeste 0 -- -- 45
2019-06-17 21:00:00 25.9 23 Sudeste 38 Sudeste 0 -- -- 48
2019-06-17 20:00:00 28 27 Sudeste 45 Sudeste 0 -- -- 44
2019-06-17 19:00:00 30.1 26 Sudeste 43 Sudeste 0 -- -- 37
2019-06-17 18:00:00 32.5 17 Sudeste 40 Sur 0 -- -- 34
2019-06-17 17:00:00 34.9 7 Este 20 Nordeste 0 -- -- 23
2019-06-17 16:00:00 35 12 Nordeste 23 Nordeste 0 -- -- 21
2019-06-17 15:00:00 32.8 5 Sudeste 18 Nordeste 0 -- -- 24
2019-06-17 14:00:00 31.1 7 Este 17 Nordeste 0 -- -- 28
2019-06-17 13:00:00 28.3 5 Oeste 15 Oeste 0 -- -- 36
2019-06-17 12:00:00 26.5 8 Noroeste 14 Sudoeste 0 -- -- 42
2019-06-17 11:00:00 24.5 5 Sudeste 13 Este 0 -- -- 51
2019-06-17 10:00:00 22.3 6 Sudeste 16 Este 0 -- -- 57
2019-06-17 09:00:00 18.5 4 Oeste 8 Noroeste 0 -- -- 67
2019-06-17 08:00:00 16.5 3 Oeste 5 Nordeste 0 -- -- 72
2019-06-17 07:00:00 15.5 2 Sudoeste 5 Sur 0 -- -- 75
2019-06-17 06:00:00 15.5 3 Noroeste 6 Oeste 0 -- -- 74
2019-06-17 05:00:00 16.6 3 Noroeste 9 Este 0 -- -- 67
2019-06-17 04:00:00 18.2 3 Este 10 Nordeste 0 -- -- 58
2019-06-17 03:00:00 18.9 6 Este 16 Nordeste 0 -- -- 58
2019-06-17 02:00:00 20.5 8 Nordeste 16 Este 0 -- -- 55
2019-06-17 01:00:00 20.9 10 Este 26 Sudeste 0 -- -- 52
2019-06-17 00:00:00 21.9 11 Sudeste 24 Sudeste 0 -- -- 48
2019-06-16 23:00:00 22.5 16 Sudeste 30 Sudeste 0 -- -- 49
2019-06-16 22:00:00 23.3 18 Sudeste 31 Sudeste 0 -- -- 49
2019-06-16 21:00:00 24.5 19 Sudeste 39 Sudeste 0 -- -- 46
2019-06-16 20:00:00 26.1 21 Sudeste 33 Sudeste 0 -- -- 43
2019-06-16 19:00:00 28.2 16 Sudeste 35 Sudeste 0 -- -- 39
2019-06-16 18:00:00 30 10 Sudeste 26 Nordeste 0 -- -- 34
2019-06-16 17:00:00 31.5 12 Nordeste 24 Nordeste 0 -- -- 26
2019-06-16 16:00:00 30.6 9 Norte 21 Nordeste 0 -- -- 27
2019-06-16 15:00:00 29.6 9 Noroeste 15 Noroeste 0 -- -- 29
2019-06-16 14:00:00 28 5 Norte 14 Sudoeste 0 -- -- 31
2019-06-16 13:00:00 25.3 5 Noroeste 14 Sudoeste 0 -- -- 40
2019-06-16 12:00:00 23.6 5 Sur 11 Oeste 0 -- -- 46
2019-06-16 11:00:00 21.7 4 Oeste 10 Noroeste 0 -- -- 54
2019-06-16 10:00:00 19.6 3 Sur 10 Sur 0 -- -- 57
2019-06-16 09:00:00 17.8 4 Oeste 7 Sur 0 -- -- 74
2019-06-16 08:00:00 16.3 0 Calma 4 Sudoeste 0 -- -- 81
2019-06-16 07:00:00 15.2 2 Oeste 10 Este 0 -- -- 84
2019-06-16 06:00:00 16.1 7 Este 15 Este 0 -- -- 81
2019-06-16 05:00:00 16.8 7 Este 15 Sudeste 0 -- -- 79
2019-06-16 04:00:00 17.4 10 Este 16 Sudeste 0 -- -- 82
2019-06-16 03:00:00 18.6 9 Sudeste 21 Sur 0 -- -- 74
2019-06-16 02:00:00 19.3 10 Sudeste 23 Sudeste 0 -- -- 69
2019-06-16 01:00:00 20 14 Sudeste 24 Sudeste 0 -- -- 65
2019-06-16 00:00:00 21.7 5 Sudoeste 17 Noroeste 0 -- -- 38
2019-06-15 23:00:00 22.8 4 Oeste 6 Noroeste 0 -- -- 35
2019-06-15 22:00:00 24.2 4 Norte 22 Noroeste 0 -- -- 33
2019-06-15 21:00:00 26.2 14 Noroeste 30 Noroeste 0 -- -- 29
2019-06-15 20:00:00 27.7 18 Noroeste 31 Noroeste 0 -- -- 26
2019-06-15 19:00:00 29 13 Oeste 35 Oeste 0 -- -- 23
2019-06-15 18:00:00 29.3 14 Oeste 32 Oeste 0 -- -- 24
2019-06-15 17:00:00 29.4 12 Oeste 36 Oeste 0 -- -- 23
2019-06-15 16:00:00 28.6 20 Oeste 37 Noroeste 0 -- -- 25
2019-06-15 15:00:00 27.6 12 Oeste 33 Oeste 0 -- -- 28
2019-06-15 14:00:00 26.9 16 Noroeste 28 Noroeste 0 -- -- 31
2019-06-15 13:00:00 25.3 15 Noroeste 23 Noroeste 0 -- -- 37
2019-06-15 12:00:00 23.3 12 Noroeste 22 Noroeste 0 -- -- 46
2019-06-15 11:00:00 21.7 12 Oeste 26 Oeste 0 -- -- 49
2019-06-15 10:00:00 20 8 Oeste 20 Oeste 0 -- -- 55
2019-06-15 09:00:00 18 3 Oeste 8 Oeste 0 -- -- 64
2019-06-15 08:00:00 16.2 4 Noroeste 14 Sudoeste 0 -- -- 71
2019-06-15 07:00:00 15.2 9 Sudoeste 19 Sudoeste 0 -- -- 74
2019-06-15 06:00:00 15.7 9 Sudoeste 19 Noroeste 0 -- -- 72
2019-06-15 05:00:00 16.4 15 Noroeste 23 Oeste 0 -- -- 73
2019-06-15 04:00:00 17.7 14 Sudoeste 23 Sudoeste 0 -- -- 66
2019-06-15 03:00:00 19.1 4 Sur 6 Sur 0 -- -- 65
2019-06-15 02:00:00 20.5 5 Norte 22 Este 0 -- -- 59
2019-06-15 01:00:00 21.2 14 Este 34 Sudeste 0 -- -- 56
2019-06-15 00:00:00 21.9 18 Sudeste 28 Sudeste 0 -- -- 54
2019-06-14 23:00:00 22.6 11 Sudeste 27 Sudeste 0 -- -- 52
2019-06-14 22:00:00 24.4 13 Sudeste 25 Sudeste 0 -- -- 47
2019-06-14 21:00:00 26.5 14 Sudeste 27 Sudeste 0 -- -- 44
2019-06-14 20:00:00 29 14 Nordeste 22 Este 0 -- -- 36
2019-06-14 19:00:00 29.8 14 Nordeste 23 Nordeste 0 -- -- 34
2019-06-14 18:00:00 30 7 Nordeste 16 Nordeste 0 -- -- 33
2019-06-14 17:00:00 29.4 8 Norte 19 Noroeste 0 -- -- 35
2019-06-14 16:00:00 27.8 12 Noroeste 24 Oeste 0 -- -- 37
2019-06-14 15:00:00 26.3 9 Oeste 23 Oeste 0 -- -- 38
2019-06-14 14:00:00 24.8 9 Oeste 21 Oeste 0 -- -- 38
2019-06-14 13:00:00 25 13 Oeste 25 Oeste 0 -- -- 37
2019-06-14 12:00:00 22.4 4 Sur 16 Sudoeste 0 -- -- 42
2019-06-14 11:00:00 21.2 3 Sudeste 26 Norte 0 -- -- 45
2019-06-14 10:00:00 19.7 7 Norte 19 Nordeste 0 -- -- 48
2019-06-14 09:00:00 18.1 4 Nordeste 11 Sur 0 -- -- 47
2019-06-14 08:00:00 15.5 2 Sudoeste 12 Norte 0 -- -- 58
2019-06-14 07:00:00 14.8 8 Noroeste 18 Sur 0 -- -- 60
2019-06-14 06:00:00 14.8 6 Sudoeste 17 Noroeste 0 -- -- 59
2019-06-14 05:00:00 14.4 7 Oeste 18 Nordeste 0 -- -- 59
2019-06-14 04:00:00 14.1 5 Noroeste 10 Noroeste 0 -- -- 57
2019-06-14 03:00:00 15.2 0 Calma 4 Oeste 0 -- -- 48
2019-06-14 02:00:00 15.7 2 Oeste 6 Sudeste 0 -- -- 46
2019-06-14 01:00:00 17.4 5 Este 12 Sudeste 0 -- -- 40
2019-06-14 00:00:00 18 9 Sudeste 23 Sudeste 0 -- -- 36
2019-06-13 23:00:00 19.2 12 Sudeste 25 Sudeste 0 -- -- 33
2019-06-13 22:00:00 20 15 Sudeste 30 Sudeste 0 -- -- 31
2019-06-13 21:00:00 21.3 19 Sudeste 32 Sudeste 0 -- -- 32
2019-06-13 20:00:00 22.4 18 Sudeste 35 Sudeste 0 -- -- 36
2019-06-13 19:00:00 23.4 20 Sudeste 42 Sur 0 -- -- 37
2019-06-13 18:00:00 22.2 18 Sur 39 Sur 0 -- -- 45
2019-06-13 17:00:00 23.7 24 Sudeste 43 Sudeste 0 -- -- 49
2019-06-13 16:00:00 26.2 23 Sur 38 Sudeste 0 -- -- 43
2019-06-13 15:00:00 25.8 12 Sudeste 28 Sudeste 0 -- -- 43
2019-06-13 14:00:00 24 17 Sudeste 32 Este 0 -- -- 48
2019-06-13 13:00:00 23 16 Este 35 Sudeste 0 -- -- 49
2019-06-13 12:00:00 22 15 Sudeste 32 Este 0 -- -- 51
2019-06-13 11:00:00 21.2 14 Este 25 Sudeste 0 -- -- 54
2019-06-13 10:00:00 18.7 17 Nordeste 26 Nordeste 0 -- -- 59
2019-06-13 09:00:00 15.8 9 Nordeste 22 Este 0 -- -- 66
2019-06-13 08:00:00 13.7 14 Nordeste 25 Este 0 -- -- 70
2019-06-13 07:00:00 12.1 21 Nordeste 31 Nordeste 0 -- -- 72
2019-06-13 06:00:00 11.6 5 Nordeste 22 Nordeste 0 -- -- 71
2019-06-13 05:00:00 12.7 18 Nordeste 31 Nordeste 0 -- -- 65
2019-06-13 04:00:00 13.7 24 Nordeste 31 Nordeste 0 -- -- 62
2019-06-13 03:00:00 14.7 11 Este 21 Este 0 -- -- 57
2019-06-13 02:00:00 15.7 11 Este 23 Sudeste 0 -- -- 51
2019-06-13 01:00:00 15.9 8 Sudeste 30 Sudeste 0 -- -- 54
2019-06-13 00:00:00 16.6 12 Sudeste 31 Sudeste 0 -- -- 49
2019-06-12 23:00:00 17.6 14 Sudeste 26 Sudeste 0 -- -- 46
2019-06-12 22:00:00 19.2 13 Sudeste 29 Sudeste 0 -- -- 43
2019-06-12 21:00:00 21.3 15 Sudeste 31 Sudeste 0 -- -- 37
2019-06-12 20:00:00 23.7 12 Nordeste 21 Nordeste 0 -- -- 30
2019-06-12 19:00:00 24.3 12 Nordeste 26 Nordeste 0 -- -- 29
2019-06-12 18:00:00 24.5 13 Nordeste 29 Norte 0 -- -- 29
2019-06-12 17:00:00 24.7 19 Nordeste 31 Nordeste 0 -- -- 29
2019-06-12 16:00:00 23.7 10 Este 22 Nordeste 0 -- -- 31
2019-06-12 15:00:00 22.8 9 Sudoeste 20 Este 0 -- -- 30
2019-06-12 14:00:00 20.6 4 Nordeste 23 Oeste 0 -- -- 37
2019-06-12 13:00:00 20.1 6 Norte 18 Noroeste 0 -- -- 37
2019-06-12 12:00:00 18.5 10 Oeste 19 Oeste 0 -- -- 42
2019-06-12 11:00:00 16.9 9 Oeste 23 Oeste 0 -- -- 46
2019-06-12 10:00:00 14.6 4 Sudoeste 12 Sur 0 -- -- 54
2019-06-12 09:00:00 13.1 5 Norte 11 Oeste 0 -- -- 60
2019-06-12 08:00:00 10.6 2 Noroeste 5 Noroeste 0 -- -- 70
2019-06-12 07:00:00 8.9 3 Oeste 9 Sur 0 -- -- 75
2019-06-12 06:00:00 9.2 3 Oeste 11 Noroeste 0 -- -- 72
2019-06-12 05:00:00 9.9 4 Noroeste 12 Sudoeste 0 -- -- 70
2019-06-12 04:00:00 10.9 10 Sudoeste 18 Sudoeste 0 -- -- 66
2019-06-12 03:00:00 11.8 4 Oeste 23 Oeste 0 -- -- 62
2019-06-12 02:00:00 12.5 12 Oeste 23 Oeste 0 -- -- 60
2019-06-12 01:00:00 13.2 13 Oeste 30 Oeste 0 -- -- 58
2019-06-12 00:00:00 14.3 17 Oeste 33 Oeste 0 -- -- 54
2019-06-11 23:00:00 15 14 Noroeste 36 Oeste 0 -- -- 49
2019-06-11 22:00:00 16.5 20 Oeste 38 Oeste 0 -- -- 45
2019-06-11 21:00:00 18.5 25 Oeste 42 Oeste 0 -- -- 41
2019-06-11 20:00:00 20.1 30 Oeste 45 Oeste 0 -- -- 35
2019-06-11 19:00:00 20.7 27 Oeste 37 Oeste 0 -- -- 37
2019-06-11 18:00:00 19.9 15 Sudoeste 32 Oeste 0 -- -- 46
2019-06-11 17:00:00 19.6 12 Sudoeste 29 Sudoeste 0 -- -- 56
2019-06-11 16:00:00 16.2 8 Sudoeste 22 Sudoeste 0 -- -- 70
2019-06-11 15:00:00 15.5 16 Oeste 26 Oeste 0 -- -- 71
2019-06-11 14:00:00 14 12 Oeste 21 Oeste 0.2 -- -- 79
2019-06-11 13:00:00 13.1 6 Oeste 15 Oeste 0.2 -- -- 85
2019-06-11 12:00:00 12.7 5 Noroeste 16 Noroeste 0.4 -- -- 85
2019-06-11 11:00:00 12.2 12 Noroeste 21 Oeste 0 -- -- 80
2019-06-11 10:00:00 12.5 3 Oeste 16 Oeste 0 -- -- 85
2019-06-11 09:00:00 12 5 Sur 11 Sudoeste 0.4 -- -- 86
2019-06-11 08:00:00 11.7 6 Oeste 14 Oeste 0 -- -- 85
2019-06-11 07:00:00 11.7 6 Oeste 18 Noroeste 1 -- -- 86
2019-06-11 06:00:00 11.8 12 Noroeste 22 Oeste 1.6 -- -- 83
2019-06-11 05:00:00 13.7 13 Sudoeste 25 Sudoeste 0.4 -- -- 70
2019-06-11 04:00:00 16 7 Sur 18 Sur 0 -- -- 48
2019-06-11 03:00:00 16.6 5 Sur 12 Sudoeste 0 -- -- 45
2019-06-11 02:00:00 16.8 4 Noroeste 27 Sudoeste 0 -- -- 44
2019-06-11 01:00:00 17.1 13 Sudoeste 23 Sudoeste 0 -- -- 43
2019-06-11 00:00:00 18 9 Sudoeste 37 Oeste 0 -- -- 40
2019-06-10 23:00:00 19 18 Oeste 34 Sudoeste 0 -- -- 37
2019-06-10 22:00:00 20.7 16 Oeste 28 Sudoeste 0 -- -- 33
2019-06-10 21:00:00 22.8 14 Noroeste 35 Noroeste 0 -- -- 30
2019-06-10 20:00:00 24.3 22 Oeste 36 Noroeste 0 -- -- 31
2019-06-10 19:00:00 24.4 24 Noroeste 39 Noroeste 0 -- -- 32
2019-06-10 18:00:00 26 31 Noroeste 40 Noroeste 0 -- -- 27
2019-06-10 17:00:00 26.9 23 Noroeste 39 Noroeste 0 -- -- 29
2019-06-10 16:00:00 27.6 19 Oeste 36 Oeste 0 -- -- 31
2019-06-10 15:00:00 26.5 16 Sudoeste 35 Oeste 0 -- -- 34
2019-06-10 14:00:00 25.1 16 Sudoeste 33 Oeste 0 -- -- 37
2019-06-10 13:00:00 23.7 18 Oeste 33 Oeste 0 -- -- 40
2019-06-10 12:00:00 22.3 16 Noroeste 27 Sur 0 -- -- 44
2019-06-10 11:00:00 20.7 10 Oeste 26 Sudoeste 0 -- -- 49
2019-06-10 10:00:00 19.1 13 Oeste 25 Oeste 0 -- -- 54
2019-06-10 09:00:00 16.6 13 Sudoeste 29 Sudoeste 0 -- -- 61
2019-06-10 08:00:00 15.4 14 Sudoeste 31 Sudoeste 0 -- -- 66
2019-06-10 07:00:00 15 15 Sudoeste 30 Sudoeste 0 -- -- 68
2019-06-10 06:00:00 15.6 14 Sudoeste 26 Sudoeste 0 -- -- 67
2019-06-10 05:00:00 16.3 14 Sudoeste 27 Sudoeste 0 -- -- 65
2019-06-10 04:00:00 17 12 Sudoeste 22 Sudoeste 0 -- -- 64
2019-06-10 03:00:00 17.9 14 Sudoeste 24 Sudoeste 0 -- -- 62
2019-06-10 02:00:00 19.4 6 Oeste 12 Oeste 0 -- -- 57
2019-06-10 01:00:00 20.7 7 Sudoeste 18 Sudoeste 0 -- -- 48
2019-06-10 00:00:00 21.6 0 Calma 22 Sudeste 0 -- -- 27
2019-06-09 23:00:00 23 12 Sudeste 27 Sudeste 0 -- -- 24
2019-06-09 22:00:00 24 16 Sudeste 32 Sudeste 0 -- -- 23
2019-06-09 21:00:00 25.6 15 Sudeste 28 Sudeste 0 -- -- 23
2019-06-09 20:00:00 27.3 18 Sudeste 31 Sudeste 0 -- -- 22
2019-06-09 19:00:00 28.6 6 Este 19 Sudeste 0 -- -- 27
2019-06-09 18:00:00 30.8 7 Nordeste 17 Nordeste 0 -- -- 25
2019-06-09 17:00:00 29.8 5 Este 17 Nordeste 0 -- -- 24
2019-06-09 16:00:00 29 8 Oeste 14 Nordeste 0 -- -- 24
2019-06-09 15:00:00 27.6 6 Nordeste 15 Sur 0 -- -- 25
2019-06-09 14:00:00 27.2 4 Nordeste 16 Sudeste 0 -- -- 25
2019-06-09 13:00:00 25.8 8 Sudeste 20 Sur 0 -- -- 25
2019-06-09 12:00:00 25 7 Sur 17 Sur 0 -- -- 30
2019-06-09 11:00:00 23.2 4 Noroeste 10 Noroeste 0 -- -- 41
2019-06-09 10:00:00 21.2 4 Norte 10 Oeste 0 -- -- 42
2019-06-09 09:00:00 18.3 4 Noroeste 9 Noroeste 0 -- -- 53
2019-06-09 08:00:00 15.9 4 Sudoeste 8 Oeste 0 -- -- 63
2019-06-09 07:00:00 15.7 7 Sur 10 Sur 0 -- -- 62
2019-06-09 06:00:00 15.9 2 Norte 6 Oeste 0 -- -- 57
2019-06-09 05:00:00 16.1 3 Oeste 8 Oeste 0 -- -- 58
2019-06-09 04:00:00 16.4 4 Noroeste 8 Nordeste 0 -- -- 56
2019-06-09 03:00:00 17.1 6 Este 15 Este 0 -- -- 51
2019-06-09 02:00:00 17.7 6 Nordeste 17 Nordeste 0 -- -- 48
2019-06-09 01:00:00 18.5 8 Este 15 Sudeste 0 -- -- 46
2019-06-09 00:00:00 19.3 10 Sudeste 20 Sudeste 0 -- -- 42
2019-06-08 23:00:00 19.6 4 Este 21 Sudeste 0 -- -- 41
2019-06-08 22:00:00 20.2 13 Este 29 Sudeste 0 -- -- 39
2019-06-08 21:00:00 21.1 13 Sudeste 35 Sur 0 -- -- 38
2019-06-08 20:00:00 22.2 19 Sudeste 39 Sudeste 0 -- -- 38
2019-06-08 19:00:00 23.1 21 Sur 38 Sur 0 -- -- 37
2019-06-08 18:00:00 24.3 16 Sur 43 Sur 0 -- -- 37
2019-06-08 17:00:00 25.7 25 Sur 42 Sudeste 0 -- -- 33
2019-06-08 16:00:00 26.3 24 Sur 40 Sudeste 0 -- -- 33
2019-06-08 15:00:00 26.4 9 Este 22 Nordeste 0 -- -- 39
2019-06-08 14:00:00 25.6 11 Nordeste 23 Nordeste 0 -- -- 39
2019-06-08 13:00:00 23.1 6 Sudeste 17 Nordeste 0 -- -- 42
2019-06-08 12:00:00 21.2 5 Sudoeste 15 Sudeste 0 -- -- 46
2019-06-08 11:00:00 19.9 4 Este 13 Nordeste 0 -- -- 47
2019-06-08 10:00:00 18.3 5 Nordeste 9 Norte 0 -- -- 49
2019-06-08 09:00:00 15.9 3 Sudeste 6 Sudeste 0 -- -- 54
2019-06-08 08:00:00 14.4 2 Sudoeste 5 Sur 0 -- -- 58
2019-06-08 07:00:00 12.8 0 Calma 4 Noroeste 0 -- -- 56
2019-06-08 06:00:00 12.3 3 Norte 5 Norte 0 -- -- 60
2019-06-08 05:00:00 12.4 0 Calma 10 Sudoeste 0 -- -- 60
2019-06-08 04:00:00 12.2 5 Sur 12 Sur 0 -- -- 66
2019-06-08 03:00:00 14.2 3 Noroeste 11 Noroeste 0 -- -- 55
2019-06-08 02:00:00 14.5 7 Noroeste 11 Noroeste 0 -- -- 53
2019-06-08 01:00:00 16.6 5 Noroeste 6 Noroeste 0 -- -- 45
2019-06-08 00:00:00 18.6 4 Norte 8 Norte 0 -- -- 36
2019-06-07 23:00:00 19.6 3 Norte 12 Noroeste 0 -- -- 34
2019-06-07 22:00:00 21.3 8 Noroeste 23 Noroeste 0 -- -- 31
2019-06-07 21:00:00 23.1 13 Noroeste 29 Noroeste 0 -- -- 27
2019-06-07 20:00:00 24.3 19 Noroeste 38 Noroeste 0 -- -- 25
2019-06-07 19:00:00 24.5 15 Noroeste 35 Noroeste 0 -- -- 26
2019-06-07 18:00:00 25 17 Noroeste 44 Oeste 0 -- -- 25
2019-06-07 17:00:00 25.8 21 Noroeste 40 Oeste 0 -- -- 19
2019-06-07 16:00:00 25.5 24 Oeste 46 Oeste 0 -- -- 19
2019-06-07 15:00:00 24.8 24 Oeste 43 Oeste 0 -- -- 22
2019-06-07 14:00:00 23.9 24 Oeste 47 Oeste 0 -- -- 27
2019-06-07 13:00:00 22.7 30 Oeste 44 Oeste 0 -- -- 37
2019-06-07 12:00:00 20.8 19 Noroeste 31 Noroeste 0 -- -- 50
2019-06-07 11:00:00 19.4 21 Oeste 44 Oeste 0 -- -- 56
2019-06-07 10:00:00 18.3 27 Noroeste 47 Noroeste 0 -- -- 60
2019-06-07 09:00:00 18.3 3 Sudoeste 21 Nordeste 0 -- -- 70
2019-06-07 08:00:00 16 19 Nordeste 29 Nordeste 0 -- -- 76
2019-06-07 07:00:00 14.7 19 Nordeste 26 Nordeste 0 -- -- 81
2019-06-07 06:00:00 14.6 17 Nordeste 32 Nordeste 0 -- -- 80
2019-06-07 05:00:00 15.2 19 Nordeste 32 Nordeste 0 -- -- 77
2019-06-07 04:00:00 16.3 18 Nordeste 27 Este 0 -- -- 72
2019-06-07 03:00:00 16.9 14 Nordeste 24 Nordeste 0 -- -- 69
2019-06-07 02:00:00 18.4 10 Este 24 Este 0 -- -- 68
2019-06-07 01:00:00 18.6 13 Este 30 Sudeste 0 -- -- 68
2019-06-07 00:00:00 18.8 17 Este 37 Sudeste 0 -- -- 68
2019-06-06 23:00:00 18.9 17 Este 39 Sudeste 0 -- -- 66
2019-06-06 22:00:00 19.1 17 Sudeste 39 Sudeste 0 -- -- 59
2019-06-06 21:00:00 20.5 19 Sudeste 42 Este 0 -- -- 52
2019-06-06 20:00:00 21.1 20 Sudeste 48 Sur 0 -- -- 49
2019-06-06 19:00:00 23 26 Sudeste 60 Sudeste 0 -- -- 42
2019-06-06 18:00:00 23.7 26 Sudeste 48 Sudeste 0 -- -- 40
2019-06-06 17:00:00 22.6 23 Sudeste 49 Sudeste 0 -- -- 45
2019-06-06 16:00:00 24 25 Sudeste 48 Sudeste 0 -- -- 40
2019-06-06 15:00:00 24.9 18 Sudeste 44 Sudeste 0 -- -- 37
2019-06-06 14:00:00 25.9 9 Este 35 Sudeste 0 -- -- 34
2019-06-06 13:00:00 23.9 13 Nordeste 27 Nordeste 0 -- -- 39
2019-06-06 12:00:00 21.9 9 Este 19 Este 0 -- -- 42
2019-06-06 11:00:00 19.6 6 Este 16 Nordeste 0 -- -- 47
2019-06-06 10:00:00 18 8 Nordeste 14 Este 0 -- -- 53
2019-06-06 09:00:00 15.8 3 Sur 10 Este 0 -- -- 57
2019-06-06 08:00:00 13.6 0 Calma 6 Sur 0 -- -- 66
2019-06-06 07:00:00 12.6 5 Sur 9 Sur 0 -- -- 68
2019-06-06 06:00:00 13 3 Sudoeste 12 Sudoeste 0 -- -- 66
2019-06-06 05:00:00 13.9 8 Oeste 15 Sudoeste 0 -- -- 63
2019-06-06 04:00:00 14.6 6 Oeste 19 Oeste 0 -- -- 60
2019-06-06 03:00:00 14.9 15 Sudoeste 27 Sudoeste 0 -- -- 57
2019-06-06 02:00:00 14.9 11 Sudoeste 24 Sudoeste 0 -- -- 54
2019-06-06 01:00:00 15.3 10 Sudoeste 19 Sudoeste 0 -- -- 52
2019-06-06 00:00:00 16.4 9 Sudoeste 22 Oeste 0 -- -- 49
2019-06-05 23:00:00 17.5 15 Oeste 32 Oeste 0 -- -- 44
2019-06-05 22:00:00 18.3 21 Oeste 48 Oeste 0 -- -- 43
2019-06-05 21:00:00 19.4 27 Oeste 60 Oeste 0 -- -- 42
2019-06-05 20:00:00 20.7 43 Oeste 57 Oeste 0 -- -- 38
2019-06-05 19:00:00 21.7 34 Oeste 57 Oeste 0 -- -- 39
2019-06-05 18:00:00 22.2 29 Noroeste 53 Noroeste 0 -- -- 38
2019-06-05 17:00:00 21.9 33 Oeste 59 Oeste 0 -- -- 41
2019-06-05 16:00:00 22 32 Oeste 57 Oeste 0 -- -- 42
2019-06-05 15:00:00 21.8 37 Oeste 77 Oeste 0 -- -- 42
2019-06-05 14:00:00 19.4 14 Oeste 32 Noroeste 0 -- -- 62
2019-06-05 13:00:00 21.2 11 Oeste 31 Oeste 0 -- -- 55
2019-06-05 12:00:00 17.8 4 Sudoeste 25 Oeste 0 -- -- 66
2019-06-05 11:00:00 17 15 Sudoeste 27 Oeste 0 -- -- 67
2019-06-05 10:00:00 17 4 Sudoeste 14 Sudoeste 0 -- -- 66
2019-06-05 09:00:00 16.1 4 Sudeste 17 Sudoeste 0 -- -- 68
2019-06-05 08:00:00 16.3 5 Sudoeste 14 Oeste 0 -- -- 68
2019-06-05 07:00:00 16.8 6 Sudoeste 16 Sudoeste 0 -- -- 69
2019-06-05 06:00:00 17.6 5 Sur 20 Sudeste 0 -- -- 77
2019-06-05 05:00:00 17.9 10 Sudeste 25 Sudeste 0 -- -- 80
2019-06-05 04:00:00 18.1 13 Sudeste 23 Sudeste 0 -- -- 74
2019-06-05 03:00:00 19 11 Sudeste 28 Sudeste 0 -- -- 65
2019-06-05 02:00:00 19.7 10 Este 31 Sudeste 0 -- -- 58
2019-06-05 01:00:00 20.4 12 Este 33 Sudeste 0 -- -- 53
2019-06-05 00:00:00 21 16 Sudeste 26 Este 0 -- -- 50
2019-06-04 23:00:00 21.3 14 Este 34 Este 0 -- -- 49
2019-06-04 22:00:00 21.7 18 Sudeste 54 Sudeste 0 -- -- 48
2019-06-04 21:00:00 22.5 26 Sudeste 50 Sudeste 0 -- -- 51
2019-06-04 20:00:00 23.9 26 Sudeste 46 Sudeste 0 -- -- 53
2019-06-04 19:00:00 26.1 24 Sudeste 46 Sudeste 0 -- -- 46
2019-06-04 18:00:00 27.9 24 Sudeste 46 Sur 0 -- -- 42
2019-06-04 17:00:00 29.3 24 Sudeste 41 Sudeste 0 -- -- 38
2019-06-04 16:00:00 30.3 21 Sudeste 39 Sudeste 0 -- -- 37
2019-06-04 15:00:00 30.2 14 Sudeste 27 Sudeste 0 -- -- 38
2019-06-04 14:00:00 29.1 16 Sudeste 27 Sur 0 -- -- 39
2019-06-04 13:00:00 27.6 15 Sur 28 Sudeste 0 -- -- 41
2019-06-04 12:00:00 25.6 12 Sudeste 27 Sudeste 0 -- -- 46
2019-06-04 11:00:00 23.9 11 Sudeste 26 Este 0 -- -- 54
2019-06-04 10:00:00 22.4 9 Este 17 Nordeste 0 -- -- 53
2019-06-04 09:00:00 19.8 9 Nordeste 13 Nordeste 0 -- -- 54
2019-06-04 08:00:00 18.1 8 Este 22 Nordeste 0 -- -- 56
2019-06-04 07:00:00 16.4 13 Este 25 Este 0 -- -- 62
2019-06-04 06:00:00 16.3 14 Este 22 Este 0 -- -- 62
2019-06-04 05:00:00 16.7 12 Este 22 Nordeste 0 -- -- 60
2019-06-04 04:00:00 17.2 12 Este 21 Nordeste 0 -- -- 57
2019-06-04 03:00:00 17.9 13 Este 20 Este 0 -- -- 54
2019-06-04 02:00:00 19.7 12 Este 27 Sudeste 0 -- -- 47
2019-06-04 01:00:00 21.2 18 Sudeste 30 Sudeste 0 -- -- 44
2019-06-04 00:00:00 21.2 15 Sudeste 25 Sudeste 0 -- -- 43
2019-06-03 23:00:00 21.7 10 Sudeste 38 Sudeste 0 -- -- 44
2019-06-03 22:00:00 22.6 17 Sudeste 33 Este 0 -- -- 39
2019-06-03 21:00:00 24 20 Sudeste 40 Sudeste 0 -- -- 35
2019-06-03 20:00:00 25 23 Sudeste 41 Sudeste 0 -- -- 37
2019-06-03 19:00:00 26.6 19 Sudeste 41 Sudeste 0 -- -- 39
2019-06-03 18:00:00 28.5 22 Sudeste 37 Sudeste 0 -- -- 36
2019-06-03 17:00:00 29.3 22 Sudeste 42 Sudeste 0 -- -- 34
2019-06-03 16:00:00 30 21 Sudeste 35 Sudeste 0 -- -- 33
2019-06-03 15:00:00 29.5 17 Sudeste 35 Sur 0 -- -- 34
2019-06-03 14:00:00 28.7 21 Sur 33 Sur 0 -- -- 33
2019-06-03 13:00:00 28.4 10 Sudeste 19 Este 0 -- -- 32
2019-06-03 12:00:00 26.5 9 Sudeste 18 Sudeste 0 -- -- 36
2019-06-03 11:00:00 25 5 Este 15 Este 0 -- -- 38
2019-06-03 10:00:00 21.8 4 Sudoeste 9 Sur 0 -- -- 45
2019-06-03 09:00:00 19.4 4 Norte 10 Oeste 0 -- -- 52
2019-06-03 08:00:00 17 0 Calma 4 Sudoeste 0 -- -- 56
2019-06-03 07:00:00 15.7 0 Calma 6 Sudoeste 0 -- -- 58
2019-06-03 06:00:00 16.5 3 Sur 13 Este 0 -- -- 54
2019-06-03 05:00:00 17.1 8 Nordeste 28 Nordeste 0 -- -- 50
2019-06-03 04:00:00 18 12 Este 25 Nordeste 0 -- -- 45
2019-06-03 03:00:00 18.8 18 Nordeste 25 Nordeste 0 -- -- 42
2019-06-03 02:00:00 20.4 7 Este 20 Este 0 -- -- 40
2019-06-03 01:00:00 20.7 11 Sudeste 24 Sudeste 0 -- -- 40
2019-06-03 00:00:00 21.3 17 Sudeste 28 Sudeste 0 -- -- 38
2019-06-02 23:00:00 21.9 10 Sudeste 32 Sudeste 0 -- -- 38
2019-06-02 22:00:00 23.2 15 Sudeste 32 Sudeste 0 -- -- 35
2019-06-02 21:00:00 25.1 12 Sudeste 43 Sudeste 0 -- -- 32
2019-06-02 20:00:00 27 24 Sudeste 42 Sudeste 0 -- -- 29
2019-06-02 19:00:00 28.5 24 Sudeste 40 Sudeste 0 -- -- 30
2019-06-02 18:00:00 30.3 18 Sudeste 41 Sudeste 0 -- -- 29
2019-06-02 17:00:00 31 18 Sudeste 31 Sudeste 0 -- -- 29
2019-06-02 16:00:00 31.5 14 Sudeste 35 Sudeste 0 -- -- 27
2019-06-02 15:00:00 31.4 12 Sudeste 28 Sudeste 0 -- -- 27
2019-06-02 14:00:00 30.3 10 Sudeste 23 Sudeste 0 -- -- 29
2019-06-02 13:00:00 28.7 10 Sudeste 24 Sudeste 0 -- -- 31
2019-06-02 12:00:00 26.7 11 Sudeste 20 Sudeste 0 -- -- 33
2019-06-02 11:00:00 24.5 7 Sudeste 14 Sudeste 0 -- -- 41
2019-06-02 10:00:00 21.8 3 Sudoeste 11 Oeste 0 -- -- 50
2019-06-02 09:00:00 19.1 6 Norte 10 Noroeste 0 -- -- 55
2019-06-02 08:00:00 16.7 0 Calma 4 Oeste 0 -- -- 66
2019-06-02 07:00:00 15.7 3 Norte 5 Este 0 -- -- 65
2019-06-02 06:00:00 15.8 3 Sur 6 Este 0 -- -- 65
2019-06-02 05:00:00 17.6 3 Sur 20 Este 0 -- -- 57
2019-06-02 04:00:00 18.2 13 Nordeste 18 Este 0 -- -- 53
2019-06-02 03:00:00 19.6 5 Este 20 Sudeste 0 -- -- 44
2019-06-02 02:00:00 20.2 8 Sudeste 17 Sudeste 0 -- -- 40
2019-06-02 01:00:00 21 10 Sudeste 26 Sudeste 0 -- -- 38
2019-06-02 00:00:00 22 13 Sudeste 31 Sudeste 0 -- -- 36
2019-06-01 23:00:00 22.9 21 Sudeste 31 Sur 0 -- -- 36
2019-06-01 22:00:00 23.7 15 Sudeste 32 Sur 0 -- -- 36
2019-06-01 21:00:00 25.1 21 Sudeste 33 Sur 0 -- -- 35
2019-06-01 20:00:00 27.2 17 Sudeste 36 Sudeste 0 -- -- 34
2019-06-01 19:00:00 28.7 22 Sudeste 36 Sudeste 0 -- -- 32
2019-06-01 18:00:00 30.5 20 Sudeste 30 Sur 0 -- -- 31
2019-06-01 17:00:00 31.9 9 Sur 19 Sur 0 -- -- 27
2019-06-01 16:00:00 31.3 6 Sudeste 22 Nordeste 0 -- -- 26
2019-06-01 15:00:00 31 9 Sudeste 23 Sudeste 0 -- -- 27
2019-06-01 14:00:00 29.9 11 Sur 19 Sur 0 -- -- 30
2019-06-01 13:00:00 27.8 7 Sur 13 Sur 0 -- -- 35
2019-06-01 12:00:00 25.9 6 Este 14 Nordeste 0 -- -- 40
2019-06-01 11:00:00 24.2 4 Este 12 Este 0 -- -- 47
2019-06-01 10:00:00 20.7 4 Noroeste 10 Nordeste 0 -- -- 57
2019-06-01 09:00:00 18.6 4 Nordeste 12 Nordeste 0 -- -- 62
2019-06-01 08:00:00 15.7 2 Noroeste 4 Sur 0 -- -- 74
2019-06-01 07:00:00 14.6 0 Calma 4 Oeste 0 -- -- 75
2019-06-01 06:00:00 14.5 4 Oeste 7 Sudoeste 0 -- -- 76
2019-06-01 05:00:00 16.5 3 Este 18 Este 0 -- -- 65
2019-06-01 04:00:00 16.8 3 Nordeste 12 Nordeste 0 -- -- 64
2019-06-01 03:00:00 17.6 4 Nordeste 13 Este 0 -- -- 62
2019-06-01 02:00:00 18.6 5 Este 17 Este 0 -- -- 59
2019-06-01 01:00:00 19.8 12 Este 24 Sudeste 0 -- -- 52
2019-06-01 00:00:00 20.5 16 Sudeste 30 Sudeste 0 -- -- 50
2019-05-31 23:00:00 20.8 17 Sudeste 31 Sudeste 0 -- -- 51
2019-05-31 22:00:00 21.8 17 Sudeste 31 Sudeste 0 -- -- 50
2019-05-31 21:00:00 23.6 17 Sudeste 39 Sudeste 0 -- -- 46
2019-05-31 20:00:00 25.4 23 Sudeste 37 Sudeste 0 -- -- 43
2019-05-31 19:00:00 27.2 20 Sudeste 31 Sudeste 0 -- -- 38
2019-05-31 18:00:00 28.3 18 Sur 32 Sudeste 0 -- -- 37
2019-05-31 17:00:00 29 13 Sur 29 Sur 0 -- -- 35
2019-05-31 16:00:00 29.6 7 Sur 17 Sur 0 -- -- 31
2019-05-31 15:00:00 29.2 7 Nordeste 29 Sudeste 0 -- -- 34
2019-05-31 14:00:00 27.9 8 Este 22 Sudeste 0 -- -- 37
2019-05-31 13:00:00 25.9 6 Nordeste 20 Sur 0 -- -- 42
2019-05-31 12:00:00 23.5 7 Sur 19 Sudeste 0 -- -- 52
2019-05-31 11:00:00 21.8 8 Sudeste 15 Sudeste 0 -- -- 57
2019-05-31 10:00:00 19.6 5 Sudeste 13 Sudeste 0 -- -- 64
2019-05-31 09:00:00 17.8 6 Sudeste 12 Sudeste 0 -- -- 69
2019-05-31 08:00:00 15.9 2 Norte 9 Este 0 -- -- 69
2019-05-31 07:00:00 14.5 5 Este 15 Nordeste 0 -- -- 71
2019-05-31 06:00:00 14.2 6 Nordeste 10 Nordeste 0 -- -- 72
2019-05-31 05:00:00 15 4 Este 11 Este 0 -- -- 68
2019-05-31 04:00:00 15.8 2 Sudeste 19 Nordeste 0 -- -- 65
2019-05-31 03:00:00 16.1 12 Nordeste 18 Nordeste 0 -- -- 65
2019-05-31 02:00:00 16.9 12 Este 23 Este 0 -- -- 63
2019-05-31 01:00:00 19 13 Este 27 Sudeste 0 -- -- 48
2019-05-31 00:00:00 19.3 17 Sudeste 33 Sudeste 0 -- -- 52
2019-05-30 23:00:00 20.3 20 Sudeste 31 Sudeste 0 -- -- 53
2019-05-30 22:00:00 21.8 17 Sudeste 32 Sudeste 0 -- -- 47
2019-05-30 21:00:00 23.5 19 Sudeste 32 Sudeste 0 -- -- 45
2019-05-30 20:00:00 27.1 17 Sudeste 29 Sudeste 0 -- -- 40
2019-05-30 19:00:00 28.8 5 Sur 17 Noroeste 0 -- -- 28
2019-05-30 18:00:00 29 6 Sur 17 Oeste 0 -- -- 28
2019-05-30 17:00:00 28.2 6 Sur 16 Sudeste 0 -- -- 29
2019-05-30 16:00:00 27.4 10 Sur 15 Sudeste 0 -- -- 32
2019-05-30 15:00:00 25.9 9 Sudeste 19 Sur 0 -- -- 35
2019-05-30 14:00:00 25.1 7 Sudoeste 18 Sudoeste 0 -- -- 36
2019-05-30 13:00:00 23.3 5 Este 12 Sudoeste 0 -- -- 41
2019-05-30 12:00:00 21.7 6 Nordeste 12 Sudeste 0 -- -- 45
2019-05-30 11:00:00 19 4 Sudoeste 12 Sudoeste 0 -- -- 51
2019-05-30 10:00:00 16.9 3 Sur 10 Sudoeste 0 -- -- 57
2019-05-30 09:00:00 15.4 2 Noroeste 6 Nordeste 0 -- -- 62
2019-05-30 08:00:00 13.6 2 Oeste 9 Sudoeste 0 -- -- 66
2019-05-30 07:00:00 11.8 0 Calma 5 Oeste 0 -- -- 72
2019-05-30 06:00:00 12.4 0 Calma 9 Sudoeste 0 -- -- 69
2019-05-30 05:00:00 12.7 4 Sudoeste 10 Sudoeste 0 -- -- 67
2019-05-30 04:00:00 13.6 4 Oeste 9 Sudoeste 0 -- -- 63
2019-05-30 03:00:00 14.5 7 Sur 15 Sudoeste 0 -- -- 60
2019-05-30 02:00:00 15.4 6 Sudoeste 15 Sudoeste 0 -- -- 57
2019-05-30 01:00:00 16.6 8 Sudoeste 17 Sudoeste 0 -- -- 53
2019-05-30 00:00:00 17.7 9 Sudoeste 22 Sudoeste 0 -- -- 49
2019-05-29 23:00:00 19.4 10 Sur 21 Sudoeste 0 -- -- 45
2019-05-29 22:00:00 20.9 13 Oeste 23 Oeste 0 -- -- 41
2019-05-29 21:00:00 22.6 15 Oeste 32 Oeste 0 -- -- 37
2019-05-29 20:00:00 24.6 19 Noroeste 36 Oeste 0 -- -- 33
2019-05-29 19:00:00 26.2 17 Oeste 33 Oeste 0 -- -- 27
2019-05-29 18:00:00 26.3 10 Noroeste 28 Oeste 0 -- -- 24
2019-05-29 17:00:00 26.2 10 Oeste 21 Oeste 0 -- -- 23
2019-05-29 16:00:00 24.8 13 Noroeste 29 Oeste 0 -- -- 24
2019-05-29 15:00:00 24 17 Noroeste 28 Noroeste 0 -- -- 27
2019-05-29 14:00:00 23.5 16 Oeste 27 Noroeste 0 -- -- 29
2019-05-29 13:00:00 22.4 17 Oeste 29 Oeste 0 -- -- 30
2019-05-29 12:00:00 20.4 13 Noroeste 24 Noroeste 0 -- -- 36
2019-05-29 11:00:00 18.2 7 Noroeste 25 Noroeste 0 -- -- 46
2019-05-29 10:00:00 16 18 Noroeste 25 Oeste 0 -- -- 53
2019-05-29 09:00:00 14.7 8 Oeste 20 Oeste 0 -- -- 56
2019-05-29 08:00:00 12.9 6 Oeste 12 Sudoeste 0 -- -- 64
2019-05-29 07:00:00 11.4 8 Oeste 17 Oeste 0 -- -- 68
2019-05-29 06:00:00 11.6 3 Sudoeste 12 Noroeste 0 -- -- 66
2019-05-29 05:00:00 11.9 4 Noroeste 32 Noroeste 0 -- -- 65
2019-05-29 04:00:00 12.5 20 Noroeste 39 Oeste 0 -- -- 62
2019-05-29 03:00:00 13 19 Noroeste 41 Noroeste 0 -- -- 60
2019-05-29 02:00:00 13.4 22 Noroeste 50 Noroeste 0 -- -- 60
2019-05-29 01:00:00 14.1 27 Noroeste 64 Oeste 0 -- -- 56
2019-05-29 00:00:00 14.7 38 Noroeste 62 Oeste 0 -- -- 53
2019-05-28 23:00:00 15.7 32 Noroeste 54 Noroeste 0 -- -- 48
2019-05-28 22:00:00 16.7 35 Oeste 57 Oeste 0 -- -- 45
2019-05-28 21:00:00 18.1 36 Oeste 66 Oeste 0 -- -- 42
2019-05-28 20:00:00 19.7 37 Oeste 68 Oeste 0 -- -- 37
2019-05-28 19:00:00 21.1 46 Oeste 72 Oeste 0 -- -- 38
2019-05-28 18:00:00 23.5 32 Oeste 55 Oeste 0 -- -- 33
2019-05-28 17:00:00 23.7 30 Oeste 46 Sudoeste 0 -- -- 33
2019-05-28 16:00:00 24 28 Oeste 47 Oeste 0 -- -- 34
2019-05-28 15:00:00 23.7 33 Oeste 47 Oeste 0 -- -- 35
2019-05-28 14:00:00 23.4 24 Oeste 38 Oeste 0 -- -- 34
2019-05-28 13:00:00 22.5 18 Oeste 35 Oeste 0 -- -- 38
2019-05-28 12:00:00 20.4 20 Noroeste 33 Noroeste 0 -- -- 42
2019-05-28 11:00:00 18.7 22 Oeste 32 Noroeste 0 -- -- 45
2019-05-28 10:00:00 17.4 18 Oeste 31 Oeste 0 -- -- 48
2019-05-28 09:00:00 14.8 10 Sudoeste 31 Oeste 0 -- -- 59
2019-05-28 08:00:00 13.6 9 Sudoeste 20 Sudoeste 0 -- -- 62
2019-05-28 07:00:00 12.2 8 Sudoeste 15 Sudoeste 0 -- -- 66
2019-05-28 06:00:00 12.7 5 Oeste 15 Oeste 0 -- -- 64
2019-05-28 05:00:00 13.4 8 Oeste 19 Sudoeste 0 -- -- 64
2019-05-28 04:00:00 14.1 13 Oeste 31 Oeste 0 -- -- 65
2019-05-28 03:00:00 14.8 13 Sudoeste 35 Oeste 0 -- -- 58
2019-05-28 02:00:00 16 23 Oeste 32 Oeste 0 -- -- 56
2019-05-28 01:00:00 17.3 18 Oeste 31 Oeste 0 -- -- 57
2019-05-28 00:00:00 18.3 20 Oeste 47 Noroeste 0 -- -- 58
2019-05-27 23:00:00 19.8 24 Noroeste 46 Noroeste 0 -- -- 54
2019-05-27 22:00:00 21.3 21 Oeste 34 Oeste 0 -- -- 50
2019-05-27 21:00:00 23.1 19 Noroeste 36 Noroeste 0 -- -- 46
2019-05-27 20:00:00 25.4 22 Oeste 38 Noroeste 0 -- -- 42
2019-05-27 19:00:00 27.1 19 Noroeste 32 Oeste 0 -- -- 40
2019-05-27 18:00:00 27.6 13 Noroeste 26 Oeste 0 -- -- 39
2019-05-27 17:00:00 26.7 12 Noroeste 27 Noroeste 0 -- -- 40
2019-05-27 16:00:00 26.3 8 Oeste 35 Oeste 0 -- -- 42
2019-05-27 15:00:00 25.6 15 Oeste 35 Sudoeste 0 -- -- 42
2019-05-27 14:00:00 23.9 10 Oeste 25 Oeste 0 -- -- 44
2019-05-27 13:00:00 22.4 14 Oeste 28 Oeste 0 -- -- 47
2019-05-27 12:00:00 20.6 9 Oeste 25 Oeste 0 -- -- 51
2019-05-27 11:00:00 18.5 12 Sudoeste 25 Oeste 0 -- -- 58
2019-05-27 10:00:00 17 10 Oeste 20 Oeste 0 -- -- 64
2019-05-27 09:00:00 15.1 8 Oeste 18 Sudoeste 0 -- -- 71
2019-05-27 08:00:00 13.7 5 Sudoeste 17 Sudoeste 0 -- -- 76
2019-05-27 07:00:00 12.4 2 Oeste 19 Sudoeste 0 -- -- 79
2019-05-27 06:00:00 12.7 10 Sudoeste 19 Sudoeste 0 -- -- 77
2019-05-27 05:00:00 13.1 9 Sudoeste 18 Oeste 0 -- -- 75
2019-05-27 04:00:00 13.6 7 Sudoeste 16 Sur 0 -- -- 74
2019-05-27 03:00:00 14.1 4 Sur 22 Sudoeste 0 -- -- 72
2019-05-27 02:00:00 14.8 11 Sudoeste 21 Sudoeste 0 -- -- 70
2019-05-27 01:00:00 15.7 10 Sudoeste 23 Sudoeste 0 -- -- 67
2019-05-27 00:00:00 16.9 14 Sudoeste 25 Sudoeste 0 -- -- 64
2019-05-26 23:00:00 19 9 Sudoeste 21 Oeste 0 -- -- 58
2019-05-26 22:00:00 20.4 11 Oeste 22 Oeste 0 -- -- 53
2019-05-26 21:00:00 22.7 12 Noroeste 27 Noroeste 0 -- -- 46
2019-05-26 20:00:00 24.7 17 Oeste 34 Oeste 0 -- -- 42
2019-05-26 19:00:00 24.7 18 Oeste 38 Sudoeste 0 -- -- 42
2019-05-26 18:00:00 25.8 14 Sudoeste 28 Sudoeste 0 -- -- 36
2019-05-26 17:00:00 25.8 15 Sudoeste 32 Sudoeste 0 -- -- 37
2019-05-26 16:00:00 25.6 16 Oeste 31 Oeste 0 -- -- 39
2019-05-26 15:00:00 24.5 17 Oeste 33 Oeste 0 -- -- 41
2019-05-26 14:00:00 23.3 16 Oeste 28 Noroeste 0 -- -- 44
2019-05-26 13:00:00 22 17 Oeste 32 Oeste 0 -- -- 48
2019-05-26 12:00:00 20.1 15 Oeste 27 Oeste 0 -- -- 54
2019-05-26 11:00:00 17.7 12 Oeste 26 Oeste 0 -- -- 61
2019-05-26 10:00:00 15.8 10 Oeste 26 Oeste 0 -- -- 65
2019-05-26 09:00:00 14.1 8 Oeste 19 Sur 0 -- -- 70
2019-05-26 08:00:00 12.6 5 Sudoeste 12 Oeste 0 -- -- 76
2019-05-26 07:00:00 11.5 4 Sudoeste 13 Sur 0 -- -- 81
2019-05-26 06:00:00 11.5 5 Sur 14 Sudoeste 0 -- -- 81
2019-05-26 05:00:00 11.8 6 Sudoeste 14 Oeste 0 -- -- 80
2019-05-26 04:00:00 12.4 5 Oeste 20 Sudoeste 0 -- -- 79
2019-05-26 03:00:00 13.1 10 Sudoeste 21 Sudoeste 0 -- -- 76
2019-05-26 02:00:00 13.6 10 Sudoeste 25 Oeste 0 -- -- 76
2019-05-26 01:00:00 14.2 14 Sudoeste 30 Sudoeste 0 -- -- 74
2019-05-26 00:00:00 15.6 13 Sudoeste 23 Sudoeste 0 -- -- 72
2019-05-25 23:00:00 17.7 14 Oeste 28 Oeste 0 -- -- 66
2019-05-25 22:00:00 18.7 11 Oeste 17 Sudoeste 0 -- -- 67
2019-05-25 21:00:00 18.3 5 Sur 13 Sur 0 -- -- 72
2019-05-25 20:00:00 17.2 9 Sur 20 Sur 0.2 -- -- 81
2019-05-25 19:00:00 17.5 7 Noroeste 39 Nordeste 2.2 -- -- 79
2019-05-25 18:00:00 24.3 8 Noroeste 19 Oeste 0 -- -- 45
2019-05-25 17:00:00 24.1 13 Sudoeste 27 Sudoeste 0 -- -- 48
2019-05-25 16:00:00 24.2 6 Sudoeste 16 Sudoeste 0 -- -- 42
2019-05-25 15:00:00 23.5 6 Oeste 20 Oeste 0 -- -- 47
2019-05-25 14:00:00 23.3 8 Sudoeste 24 Oeste 0 -- -- 47
2019-05-25 13:00:00 22 9 Oeste 17 Oeste 0 -- -- 54
2019-05-25 12:00:00 20.3 6 Oeste 14 Oeste 0 -- -- 58
2019-05-25 11:00:00 18.3 7 Oeste 16 Oeste 0 -- -- 65
2019-05-25 10:00:00 16.7 6 Noroeste 16 Oeste 0 -- -- 73
2019-05-25 09:00:00 15.2 9 Oeste 15 Oeste 0 -- -- 77
2019-05-25 08:00:00 13.6 7 Oeste 12 Oeste 0 -- -- 81
2019-05-25 07:00:00 13.3 6 Sudoeste 10 Sudoeste 0 -- -- 83
2019-05-25 06:00:00 13.2 7 Sudoeste 13 Sudoeste 0 -- -- 86
2019-05-25 05:00:00 13.4 9 Sudoeste 13 Sudoeste 0 -- -- 85
2019-05-25 04:00:00 13.8 10 Sudoeste 14 Sudoeste 0 -- -- 85
2019-05-25 03:00:00 14.3 4 Sudoeste 12 Sudoeste 0 -- -- 84
2019-05-25 02:00:00 15 8 Oeste 13 Oeste 0 -- -- 86
2019-05-25 01:00:00 15.2 2 Sudoeste 5 Sur 0 -- -- 91
2019-05-25 00:00:00 15.6 5 Sur 7 Sudoeste 0 -- -- 88